ACA7801 KRDU-CYUL
Flight info
| Callsign | ACA7801 |
|---|---|
| Flight time | 1h 38m |
| Altitude | 39000 |
| Route | BEXGO5 BOUSY DCT GEARS DCT BBOBO Q22 LLUND DCT CAM DCT JASDU DCT PBERG CARTR5 |
| Aircraft | A320/M-SDE3FGHIRWY/LB1 |
Departure
| Time | 2026-05-07 00:12 |
|---|---|
| Airport | Raleigh-Durham International Airport (KRDU) |
Arrival
| Time | 2026-05-07 01:51 |
|---|---|
| Airport | Montreal / Pierre Elliott Trudeau International Airport (CYUL) |
| Time | Latitude | Longitude | Altitude | Speed | Heading |
|---|---|---|---|---|---|
| 2026-05-06 23:49 | 35.88010 | -78.78329 | 435 ft | 0 kts | 44° |
| 2026-05-07 00:08 | 35.88011 | -78.78328 | 434 ft | 0 kts | 44° |
| 2026-05-07 00:08 | 35.88014 | -78.78324 | 434 ft | 1 kts | 44° |
| 2026-05-07 00:08 | 35.88019 | -78.78318 | 434 ft | 1 kts | 44° |
| 2026-05-07 00:08 | 35.88022 | -78.78300 | 427 ft | 7 kts | 76° |
| 2026-05-07 00:09 | 35.88000 | -78.78248 | 429 ft | 6 kts | 127° |
| 2026-05-07 00:09 | 35.87967 | -78.78200 | 420 ft | 8 kts | 120° |
| 2026-05-07 00:09 | 35.87987 | -78.78148 | 427 ft | 6 kts | 46° |
| 2026-05-07 00:09 | 35.88008 | -78.78105 | 425 ft | 8 kts | 81° |
| 2026-05-07 00:10 | 35.87981 | -78.78046 | 428 ft | 5 kts | 135° |
| 2026-05-07 00:10 | 35.87971 | -78.78033 | 431 ft | 0 kts | 135° |
| 2026-05-07 00:11 | 35.87951 | -78.78010 | 431 ft | 8 kts | 136° |
| 2026-05-07 00:11 | 35.87871 | -78.78010 | 424 ft | 18 kts | 218° |
| 2026-05-07 00:11 | 35.87699 | -78.78213 | 428 ft | 60 kts | 225° |
| 2026-05-07 00:11 | 35.87223 | -78.78800 | 436 ft | 131 kts | 225° |
| 2026-05-07 00:12 | 35.86477 | -78.79700 | 669 ft | 168 kts | 224° |
| 2026-05-07 00:12 | 35.85548 | -78.80804 | 1139 ft | 200 kts | 225° |
| 2026-05-07 00:12 | 35.84479 | -78.82060 | 1856 ft | 222 kts | 224° |
| 2026-05-07 00:12 | 35.83319 | -78.83414 | 2706 ft | 237 kts | 225° |
| 2026-05-07 00:13 | 35.82086 | -78.84842 | 3650 ft | 248 kts | 226° |
| 2026-05-07 00:13 | 35.80802 | -78.86249 | 4858 ft | 248 kts | 223° |
| 2026-05-07 00:13 | 35.79283 | -78.87358 | 5592 ft | 262 kts | 205° |
| 2026-05-07 00:13 | 35.77536 | -78.88024 | 5871 ft | 263 kts | 201° |
| 2026-05-07 00:14 | 35.75765 | -78.88613 | 5973 ft | 264 kts | 201° |
| 2026-05-07 00:14 | 35.73992 | -78.89189 | 6000 ft | 264 kts | 201° |
| 2026-05-07 00:14 | 35.72252 | -78.89872 | 5993 ft | 260 kts | 214° |
| 2026-05-07 00:14 | 35.70953 | -78.91303 | 6036 ft | 251 kts | 243° |
| 2026-05-07 00:15 | 35.70523 | -78.93344 | 6902 ft | 249 kts | 272° |
| 2026-05-07 00:15 | 35.71012 | -78.95389 | 7991 ft | 256 kts | 298° |
| 2026-05-07 00:15 | 35.72189 | -78.97088 | 9030 ft | 265 kts | 310° |
| 2026-05-07 00:15 | 35.73730 | -78.98421 | 9991 ft | 283 kts | 331° |
| 2026-05-07 00:16 | 35.75726 | -78.98903 | 10900 ft | 299 kts | 349° |
| 2026-05-07 00:16 | 35.77794 | -78.99043 | 11622 ft | 305 kts | 351° |
| 2026-05-07 00:16 | 35.79915 | -78.99159 | 11890 ft | 305 kts | 351° |
| 2026-05-07 00:16 | 35.82040 | -78.99269 | 11982 ft | 305 kts | 351° |
| 2026-05-07 00:17 | 35.84157 | -78.99376 | 11999 ft | 305 kts | 351° |
| 2026-05-07 00:17 | 35.86273 | -78.99484 | 12004 ft | 304 kts | 351° |
| 2026-05-07 00:17 | 35.88388 | -78.99593 | 12004 ft | 304 kts | 351° |
| 2026-05-07 00:17 | 35.90500 | -78.99702 | 12004 ft | 304 kts | 351° |
| 2026-05-07 00:18 | 35.92618 | -78.99810 | 12003 ft | 304 kts | 351° |
| 2026-05-07 00:18 | 35.94731 | -78.99918 | 12002 ft | 304 kts | 351° |
| 2026-05-07 00:18 | 35.96859 | -78.99799 | 12002 ft | 313 kts | 6° |
| 2026-05-07 00:18 | 35.98968 | -78.99060 | 12003 ft | 316 kts | 11° |
| 2026-05-07 00:19 | 36.01064 | -78.98226 | 12003 ft | 316 kts | 12° |
| 2026-05-07 00:19 | 36.03139 | -78.97324 | 11998 ft | 320 kts | 20° |
| 2026-05-07 00:19 | 36.04971 | -78.95708 | 11996 ft | 331 kts | 43° |
| 2026-05-07 00:19 | 36.06248 | -78.93319 | 12001 ft | 337 kts | 60° |
| 2026-05-07 00:20 | 36.07315 | -78.90737 | 11997 ft | 337 kts | 60° |
| 2026-05-07 00:20 | 36.08370 | -78.88146 | 12009 ft | 337 kts | 61° |
| 2026-05-07 00:20 | 36.09418 | -78.85553 | 12008 ft | 338 kts | 61° |
| 2026-05-07 00:20 | 36.10470 | -78.82958 | 12008 ft | 337 kts | 61° |
| 2026-05-07 00:21 | 36.11528 | -78.80357 | 12009 ft | 338 kts | 60° |
| 2026-05-07 00:21 | 36.12585 | -78.77768 | 12005 ft | 338 kts | 60° |
| 2026-05-07 00:21 | 36.13644 | -78.75173 | 12005 ft | 338 kts | 60° |
| 2026-05-07 00:21 | 36.14704 | -78.72577 | 11994 ft | 338 kts | 60° |
| 2026-05-07 00:22 | 36.15764 | -78.69983 | 11997 ft | 338 kts | 60° |
| 2026-05-07 00:22 | 36.16811 | -78.67418 | 11992 ft | 338 kts | 60° |
| 2026-05-07 00:22 | 36.17871 | -78.64813 | 11999 ft | 337 kts | 60° |
| 2026-05-07 00:22 | 36.18922 | -78.62220 | 12000 ft | 337 kts | 60° |
| 2026-05-07 00:23 | 36.19980 | -78.59608 | 12046 ft | 349 kts | 61° |
| 2026-05-07 00:23 | 36.21113 | -78.56830 | 12397 ft | 374 kts | 60° |
| 2026-05-07 00:23 | 36.21906 | -78.54887 | 12585 ft | 390 kts | 60° |
| 2026-05-07 00:23 | 36.23611 | -78.50702 | 12852 ft | 422 kts | 61° |
| 2026-05-07 00:24 | 36.24964 | -78.47368 | 12981 ft | 444 kts | 61° |
| 2026-05-07 00:24 | 36.26403 | -78.43900 | 13260 ft | 458 kts | 57° |
| 2026-05-07 00:24 | 36.28307 | -78.40741 | 13775 ft | 459 kts | 43° |
| 2026-05-07 00:24 | 36.30716 | -78.38177 | 14290 ft | 457 kts | 33° |
| 2026-05-07 00:25 | 36.33269 | -78.35802 | 14804 ft | 461 kts | 32° |
| 2026-05-07 00:25 | 36.35847 | -78.33415 | 15305 ft | 464 kts | 32° |
| 2026-05-07 00:25 | 36.38445 | -78.31010 | 15794 ft | 467 kts | 32° |
| 2026-05-07 00:25 | 36.41058 | -78.28581 | 16271 ft | 471 kts | 32° |
| 2026-05-07 00:26 | 36.43685 | -78.26134 | 16734 ft | 474 kts | 32° |
| 2026-05-07 00:26 | 36.46333 | -78.23663 | 17167 ft | 478 kts | 31° |
| 2026-05-07 00:26 | 36.49000 | -78.21171 | 17607 ft | 481 kts | 31° |
| 2026-05-07 00:26 | 36.51682 | -78.18661 | 18032 ft | 484 kts | 31° |
| 2026-05-07 00:27 | 36.54377 | -78.16128 | 18401 ft | 487 kts | 31° |
| 2026-05-07 00:27 | 36.57080 | -78.13577 | 18791 ft | 489 kts | 31° |
| 2026-05-07 00:27 | 36.59798 | -78.11006 | 19119 ft | 492 kts | 31° |
| 2026-05-07 00:27 | 36.62532 | -78.08421 | 19424 ft | 495 kts | 32° |
| 2026-05-07 00:28 | 36.65241 | -78.05852 | 19738 ft | 497 kts | 31° |
| 2026-05-07 00:28 | 36.67999 | -78.03233 | 20023 ft | 500 kts | 31° |
| 2026-05-07 00:28 | 36.70773 | -78.00602 | 20301 ft | 502 kts | 31° |
| 2026-05-07 00:28 | 36.72658 | -77.98818 | 20483 ft | 504 kts | 31° |
| 2026-05-07 00:29 | 36.76367 | -77.95306 | 20816 ft | 507 kts | 32° |
| 2026-05-07 00:29 | 36.79173 | -77.92639 | 21089 ft | 508 kts | 32° |
| 2026-05-07 00:30 | 36.85477 | -77.83612 | 21702 ft | 526 kts | 51° |
| 2026-05-07 00:30 | 36.87574 | -77.79854 | 21893 ft | 529 kts | 51° |
| 2026-05-07 00:30 | 36.89678 | -77.76066 | 22081 ft | 531 kts | 51° |
| 2026-05-07 00:30 | 36.91787 | -77.72267 | 22261 ft | 533 kts | 51° |
| 2026-05-07 00:31 | 36.93905 | -77.68454 | 22421 ft | 535 kts | 51° |
| 2026-05-07 00:31 | 36.96029 | -77.64634 | 22581 ft | 536 kts | 51° |
| 2026-05-07 00:31 | 36.98157 | -77.60804 | 22710 ft | 537 kts | 51° |
| 2026-05-07 00:31 | 37.00286 | -77.56961 | 22851 ft | 537 kts | 51° |
| 2026-05-07 00:32 | 37.02407 | -77.53128 | 23006 ft | 536 kts | 51° |
| 2026-05-07 00:32 | 37.04531 | -77.49286 | 23136 ft | 536 kts | 52° |
| 2026-05-07 00:32 | 37.06628 | -77.45491 | 23306 ft | 538 kts | 50° |
| 2026-05-07 00:32 | 37.09046 | -77.41881 | 23434 ft | 531 kts | 38° |
| 2026-05-07 00:33 | 37.11898 | -77.39015 | 23558 ft | 521 kts | 26° |
| 2026-05-07 00:33 | 37.15071 | -77.36930 | 23674 ft | 510 kts | 14° |
| 2026-05-07 00:33 | 37.18355 | -77.35464 | 23779 ft | 507 kts | 12° |
| 2026-05-07 00:33 | 37.21698 | -77.34024 | 23889 ft | 508 kts | 11° |
| 2026-05-07 00:34 | 37.25039 | -77.32576 | 24002 ft | 509 kts | 12° |
| 2026-05-07 00:34 | 37.28394 | -77.31121 | 24118 ft | 509 kts | 11° |
| 2026-05-07 00:34 | 37.31744 | -77.29669 | 24223 ft | 510 kts | 11° |
| 2026-05-07 00:34 | 37.35105 | -77.28215 | 24332 ft | 511 kts | 11° |
| 2026-05-07 00:35 | 37.38082 | -77.26925 | 24435 ft | 511 kts | 11° |
| 2026-05-07 00:35 | 37.42569 | -77.24973 | 24584 ft | 512 kts | 11° |
| 2026-05-07 00:35 | 37.45935 | -77.23500 | 24698 ft | 513 kts | 11° |
| 2026-05-07 00:35 | 37.49305 | -77.22021 | 24795 ft | 513 kts | 11° |
| 2026-05-07 00:36 | 37.52675 | -77.20540 | 24944 ft | 513 kts | 11° |
| 2026-05-07 00:36 | 37.56050 | -77.19061 | 25059 ft | 513 kts | 11° |
| 2026-05-07 00:36 | 37.59424 | -77.17587 | 25175 ft | 514 kts | 11° |
| 2026-05-07 00:36 | 37.62806 | -77.16110 | 25292 ft | 514 kts | 11° |
| 2026-05-07 00:37 | 37.66186 | -77.14630 | 25409 ft | 515 kts | 11° |
| 2026-05-07 00:37 | 37.69546 | -77.13030 | 25525 ft | 522 kts | 17° |
| 2026-05-07 00:37 | 37.72784 | -77.10870 | 25652 ft | 527 kts | 21° |
| 2026-05-07 00:37 | 37.76005 | -77.08646 | 25771 ft | 528 kts | 21° |
| 2026-05-07 00:38 | 37.79229 | -77.06412 | 25894 ft | 528 kts | 21° |
| 2026-05-07 00:38 | 37.82450 | -77.04177 | 26014 ft | 529 kts | 21° |
| 2026-05-07 00:38 | 37.85674 | -77.01939 | 26137 ft | 529 kts | 21° |
| 2026-05-07 00:38 | 37.88901 | -76.99698 | 26269 ft | 529 kts | 21° |
| 2026-05-07 00:39 | 37.92131 | -76.97452 | 26379 ft | 529 kts | 21° |
| 2026-05-07 00:39 | 37.95362 | -76.95206 | 26533 ft | 530 kts | 21° |
| 2026-05-07 00:39 | 37.98598 | -76.92958 | 26635 ft | 531 kts | 21° |
| 2026-05-07 00:39 | 38.01839 | -76.90705 | 26745 ft | 532 kts | 21° |
| 2026-05-07 00:40 | 38.05085 | -76.88443 | 26872 ft | 532 kts | 21° |
| 2026-05-07 00:40 | 38.08329 | -76.86178 | 26974 ft | 533 kts | 21° |
| 2026-05-07 00:40 | 38.11570 | -76.83910 | 27112 ft | 531 kts | 21° |
| 2026-05-07 00:40 | 38.14808 | -76.81641 | 27290 ft | 531 kts | 21° |
| 2026-05-07 00:41 | 38.18044 | -76.79376 | 27420 ft | 532 kts | 20° |
| 2026-05-07 00:41 | 38.21288 | -76.77109 | 27536 ft | 532 kts | 20° |
| 2026-05-07 00:41 | 38.24500 | -76.74723 | 27664 ft | 540 kts | 27° |
| 2026-05-07 00:41 | 38.27472 | -76.71731 | 27794 ft | 547 kts | 33° |
| 2026-05-07 00:42 | 38.30379 | -76.68596 | 27920 ft | 548 kts | 33° |
| 2026-05-07 00:42 | 38.33282 | -76.65451 | 28055 ft | 549 kts | 34° |
| 2026-05-07 00:42 | 38.36184 | -76.62295 | 28218 ft | 549 kts | 33° |
| 2026-05-07 00:42 | 38.39095 | -76.59131 | 28354 ft | 550 kts | 33° |
| 2026-05-07 00:43 | 38.42009 | -76.55968 | 28485 ft | 551 kts | 33° |
| 2026-05-07 00:43 | 38.44929 | -76.52806 | 28619 ft | 551 kts | 33° |
| 2026-05-07 00:43 | 38.50749 | -76.46545 | 28949 ft | 549 kts | 33° |
| 2026-05-07 00:44 | 38.53670 | -76.43413 | 29138 ft | 548 kts | 32° |
| 2026-05-07 00:44 | 38.56591 | -76.40288 | 29342 ft | 548 kts | 32° |
| 2026-05-07 00:44 | 38.61495 | -76.35037 | 29603 ft | 549 kts | 32° |
| 2026-05-07 00:45 | 38.64417 | -76.31895 | 29756 ft | 549 kts | 32° |
| 2026-05-07 00:45 | 38.67339 | -76.28738 | 29920 ft | 550 kts | 32° |
| 2026-05-07 00:45 | 38.70261 | -76.25567 | 30074 ft | 550 kts | 32° |
| 2026-05-07 00:45 | 38.73137 | -76.22440 | 30221 ft | 550 kts | 32° |
| 2026-05-07 00:46 | 38.76056 | -76.19263 | 30423 ft | 549 kts | 31° |
| 2026-05-07 00:46 | 38.78971 | -76.16088 | 30570 ft | 549 kts | 31° |
| 2026-05-07 00:46 | 38.81882 | -76.12919 | 30713 ft | 548 kts | 31° |
| 2026-05-07 00:46 | 38.84786 | -76.09761 | 30913 ft | 547 kts | 31° |
| 2026-05-07 00:47 | 38.87690 | -76.06602 | 31099 ft | 546 kts | 31° |
| 2026-05-07 00:47 | 38.90590 | -76.03444 | 31267 ft | 546 kts | 31° |
| 2026-05-07 00:47 | 38.93502 | -76.00272 | 31434 ft | 546 kts | 31° |
| 2026-05-07 00:47 | 38.96396 | -75.97114 | 31643 ft | 546 kts | 30° |
| 2026-05-07 00:48 | 38.99263 | -75.93885 | 31780 ft | 549 kts | 32° |
| 2026-05-07 00:48 | 39.02092 | -75.90564 | 31934 ft | 551 kts | 33° |
| 2026-05-07 00:48 | 39.04888 | -75.87178 | 32100 ft | 553 kts | 34° |
| 2026-05-07 00:48 | 39.07669 | -75.83760 | 32274 ft | 553 kts | 34° |
| 2026-05-07 00:49 | 39.10413 | -75.80389 | 32448 ft | 552 kts | 34° |
| 2026-05-07 00:49 | 39.13199 | -75.76999 | 32603 ft | 551 kts | 33° |
| 2026-05-07 00:49 | 39.15991 | -75.73637 | 32874 ft | 549 kts | 33° |
| 2026-05-07 00:49 | 39.18790 | -75.70297 | 33045 ft | 548 kts | 32° |
| 2026-05-07 00:50 | 39.21593 | -75.66966 | 33229 ft | 548 kts | 32° |
| 2026-05-07 00:50 | 39.24397 | -75.63629 | 33421 ft | 548 kts | 32° |
| 2026-05-07 00:50 | 39.27191 | -75.60292 | 33613 ft | 548 kts | 33° |
| 2026-05-07 00:50 | 39.29980 | -75.56942 | 33806 ft | 548 kts | 33° |
| 2026-05-07 00:51 | 39.32766 | -75.53584 | 33989 ft | 547 kts | 33° |
| 2026-05-07 00:51 | 39.35544 | -75.50227 | 34222 ft | 548 kts | 32° |
| 2026-05-07 00:51 | 39.38327 | -75.46862 | 34362 ft | 549 kts | 32° |
| 2026-05-07 00:51 | 39.41116 | -75.43490 | 34531 ft | 549 kts | 32° |
| 2026-05-07 00:52 | 39.43898 | -75.40116 | 34718 ft | 547 kts | 32° |
| 2026-05-07 00:52 | 39.46666 | -75.36755 | 34969 ft | 545 kts | 32° |
| 2026-05-07 00:52 | 39.49422 | -75.33403 | 35194 ft | 543 kts | 32° |
| 2026-05-07 00:52 | 39.52175 | -75.30059 | 35403 ft | 542 kts | 31° |
| 2026-05-07 00:53 | 39.54923 | -75.26727 | 35627 ft | 541 kts | 31° |
| 2026-05-07 00:53 | 39.57669 | -75.23397 | 35769 ft | 542 kts | 31° |
| 2026-05-07 00:53 | 39.60419 | -75.20056 | 35931 ft | 541 kts | 31° |
| 2026-05-07 00:53 | 39.63165 | -75.16713 | 36099 ft | 541 kts | 31° |
| 2026-05-07 00:54 | 39.65907 | -75.13367 | 36270 ft | 540 kts | 31° |
| 2026-05-07 00:54 | 39.68651 | -75.10033 | 36437 ft | 538 kts | 30° |
| 2026-05-07 00:54 | 39.71418 | -75.06785 | 36613 ft | 535 kts | 28° |
| 2026-05-07 00:54 | 39.74178 | -75.03659 | 36758 ft | 531 kts | 28° |
| 2026-05-07 00:55 | 39.76983 | -75.00557 | 36974 ft | 528 kts | 27° |
| 2026-05-07 00:55 | 39.79791 | -74.97479 | 37148 ft | 527 kts | 27° |
| 2026-05-07 00:55 | 39.82584 | -74.94401 | 37318 ft | 526 kts | 27° |
| 2026-05-07 00:55 | 39.85368 | -74.91299 | 37478 ft | 526 kts | 27° |
| 2026-05-07 00:56 | 39.88134 | -74.88182 | 37639 ft | 526 kts | 28° |
| 2026-05-07 00:56 | 39.90941 | -74.85190 | 37826 ft | 514 kts | 21° |
| 2026-05-07 00:56 | 39.93847 | -74.82480 | 37998 ft | 514 kts | 21° |
| 2026-05-07 00:56 | 39.96761 | -74.79782 | 38136 ft | 514 kts | 20° |
| 2026-05-07 00:57 | 39.99683 | -74.77097 | 38276 ft | 513 kts | 20° |
| 2026-05-07 00:57 | 40.02589 | -74.74380 | 38409 ft | 521 kts | 24° |
| 2026-05-07 00:57 | 40.05293 | -74.71092 | 38536 ft | 541 kts | 35° |
| 2026-05-07 00:57 | 40.07822 | -74.67454 | 38655 ft | 542 kts | 36° |
| 2026-05-07 00:58 | 40.10346 | -74.63804 | 38832 ft | 541 kts | 36° |
| 2026-05-07 00:58 | 40.12855 | -74.60172 | 38861 ft | 544 kts | 36° |
| 2026-05-07 00:58 | 40.17965 | -74.52795 | 38856 ft | 547 kts | 36° |
| 2026-05-07 00:59 | 40.23483 | -74.46033 | 38866 ft | 532 kts | 25° |
| 2026-05-07 00:59 | 40.26309 | -74.43019 | 38867 ft | 533 kts | 25° |
| 2026-05-07 01:00 | 40.32032 | -74.36919 | 38847 ft | 535 kts | 26° |
| 2026-05-07 01:00 | 40.37799 | -74.30748 | 38870 ft | 536 kts | 26° |
| 2026-05-07 01:01 | 40.43573 | -74.24543 | 38884 ft | 537 kts | 26° |
| 2026-05-07 01:01 | 40.49318 | -74.18346 | 39207 ft | 530 kts | 26° |
| 2026-05-07 01:01 | 40.52152 | -74.15279 | 39440 ft | 526 kts | 27° |
| 2026-05-07 01:02 | 40.54965 | -74.12235 | 39676 ft | 522 kts | 27° |
| 2026-05-07 01:02 | 40.57768 | -74.09207 | 39823 ft | 522 kts | 27° |
| 2026-05-07 01:02 | 40.60578 | -74.06175 | 39871 ft | 523 kts | 27° |
| 2026-05-07 01:03 | 40.66238 | -74.00066 | 39879 ft | 528 kts | 27° |
| 2026-05-07 01:03 | 40.71919 | -73.93902 | 39572 ft | 528 kts | 27° |
| 2026-05-07 01:03 | 40.74743 | -73.90818 | 39036 ft | 527 kts | 27° |
| 2026-05-07 01:04 | 40.77543 | -73.87763 | 38825 ft | 530 kts | 27° |
| 2026-05-07 01:04 | 40.83269 | -73.81675 | 38841 ft | 520 kts | 20° |
| 2026-05-07 01:04 | 40.86354 | -73.79349 | 38845 ft | 500 kts | 10° |
| 2026-05-07 01:05 | 40.89706 | -73.77732 | 38849 ft | 479 kts | 359° |
| 2026-05-07 01:05 | 40.92757 | -73.76931 | 38846 ft | 464 kts | 353° |
| 2026-05-07 01:05 | 40.95954 | -73.76307 | 38848 ft | 464 kts | 353° |
| 2026-05-07 01:06 | 41.02347 | -73.75047 | 38847 ft | 465 kts | 353° |
| 2026-05-07 01:06 | 41.08749 | -73.73778 | 38850 ft | 466 kts | 353° |
| 2026-05-07 01:07 | 41.15164 | -73.72498 | 38853 ft | 467 kts | 353° |
| 2026-05-07 01:07 | 41.21591 | -73.71203 | 38847 ft | 467 kts | 353° |
| 2026-05-07 01:08 | 41.28031 | -73.69898 | 38834 ft | 469 kts | 353° |
| 2026-05-07 01:08 | 41.34497 | -73.68597 | 38848 ft | 470 kts | 354° |
| 2026-05-07 01:09 | 41.40984 | -73.67286 | 38844 ft | 471 kts | 354° |
| 2026-05-07 01:09 | 41.47469 | -73.65971 | 38845 ft | 472 kts | 354° |
| 2026-05-07 01:10 | 41.53969 | -73.64655 | 38830 ft | 473 kts | 354° |
| 2026-05-07 01:10 | 41.60479 | -73.63333 | 38836 ft | 473 kts | 354° |
| 2026-05-07 01:11 | 41.66990 | -73.61999 | 38832 ft | 473 kts | 354° |
| 2026-05-07 01:11 | 41.73508 | -73.60665 | 38836 ft | 474 kts | 354° |
| 2026-05-07 01:12 | 41.80023 | -73.59333 | 38840 ft | 474 kts | 354° |
| 2026-05-07 01:12 | 41.86503 | -73.58006 | 38832 ft | 475 kts | 354° |
| 2026-05-07 01:13 | 41.93057 | -73.56669 | 38838 ft | 477 kts | 354° |
| 2026-05-07 01:13 | 41.99620 | -73.55323 | 38841 ft | 477 kts | 355° |
| 2026-05-07 01:14 | 42.06194 | -73.53963 | 38843 ft | 479 kts | 355° |
| 2026-05-07 01:14 | 42.12798 | -73.52593 | 38851 ft | 481 kts | 355° |
| 2026-05-07 01:15 | 42.19413 | -73.51212 | 38860 ft | 481 kts | 355° |
| 2026-05-07 01:15 | 42.26036 | -73.49834 | 38860 ft | 483 kts | 355° |
| 2026-05-07 01:16 | 42.32703 | -73.48462 | 38867 ft | 486 kts | 355° |
| 2026-05-07 01:16 | 42.39394 | -73.47069 | 38865 ft | 486 kts | 356° |
| 2026-05-07 01:17 | 42.46091 | -73.45652 | 38862 ft | 488 kts | 356° |
| 2026-05-07 01:17 | 42.52814 | -73.44253 | 38867 ft | 489 kts | 356° |
| 2026-05-07 01:18 | 42.59546 | -73.42852 | 38871 ft | 490 kts | 356° |
| 2026-05-07 01:18 | 42.66289 | -73.41424 | 38885 ft | 490 kts | 357° |
| 2026-05-07 01:19 | 42.73043 | -73.39990 | 38948 ft | 490 kts | 357° |
| 2026-05-07 01:19 | 42.79783 | -73.38572 | 38798 ft | 489 kts | 357° |
| 2026-05-07 01:19 | 42.83101 | -73.37869 | 38378 ft | 490 kts | 357° |
| 2026-05-07 01:20 | 42.86473 | -73.37156 | 37832 ft | 491 kts | 357° |
| 2026-05-07 01:20 | 42.89853 | -73.36440 | 37298 ft | 492 kts | 357° |
| 2026-05-07 01:20 | 42.93237 | -73.35722 | 36776 ft | 492 kts | 356° |
| 2026-05-07 01:20 | 42.96622 | -73.34999 | 36268 ft | 492 kts | 356° |
| 2026-05-07 01:21 | 42.99979 | -73.34539 | 35827 ft | 476 kts | 348° |
| 2026-05-07 01:21 | 43.03245 | -73.34730 | 35521 ft | 468 kts | 343° |
| 2026-05-07 01:21 | 43.06493 | -73.35031 | 35635 ft | 468 kts | 343° |
| 2026-05-07 01:21 | 43.09732 | -73.35324 | 35269 ft | 465 kts | 343° |
| 2026-05-07 01:22 | 43.12965 | -73.35613 | 34166 ft | 466 kts | 342° |
| 2026-05-07 01:22 | 43.16206 | -73.35902 | 32921 ft | 467 kts | 342° |
| 2026-05-07 01:22 | 43.19458 | -73.36196 | 31554 ft | 469 kts | 343° |
| 2026-05-07 01:22 | 43.22737 | -73.36500 | 30148 ft | 476 kts | 345° |
| 2026-05-07 01:23 | 43.26066 | -73.36811 | 28396 ft | 483 kts | 346° |
| 2026-05-07 01:23 | 43.29447 | -73.37119 | 26559 ft | 490 kts | 347° |
| 2026-05-07 01:23 | 43.31702 | -73.37321 | 25329 ft | 494 kts | 348° |
| 2026-05-07 01:23 | 43.36351 | -73.37737 | 23144 ft | 500 kts | 350° |
| 2026-05-07 01:24 | 43.39800 | -73.38036 | 21915 ft | 494 kts | 350° |
| 2026-05-07 01:24 | 43.43204 | -73.38330 | 20786 ft | 487 kts | 350° |
| 2026-05-07 01:24 | 43.46567 | -73.38622 | 19726 ft | 481 kts | 350° |
| 2026-05-07 01:24 | 43.49890 | -73.38914 | 18718 ft | 475 kts | 349° |
| 2026-05-07 01:25 | 43.53171 | -73.39209 | 17718 ft | 470 kts | 349° |
| 2026-05-07 01:25 | 43.56414 | -73.39508 | 16723 ft | 463 kts | 349° |
| 2026-05-07 01:25 | 43.59607 | -73.39800 | 15806 ft | 456 kts | 350° |
| 2026-05-07 01:25 | 43.62750 | -73.40085 | 14942 ft | 449 kts | 350° |
| 2026-05-07 01:26 | 43.65844 | -73.40368 | 14116 ft | 443 kts | 350° |
| 2026-05-07 01:26 | 43.68904 | -73.40650 | 13272 ft | 437 kts | 351° |
| 2026-05-07 01:26 | 43.71913 | -73.40930 | 12390 ft | 430 kts | 350° |
| 2026-05-07 01:26 | 43.74877 | -73.41245 | 11545 ft | 425 kts | 350° |
| 2026-05-07 01:27 | 43.77811 | -73.41588 | 11171 ft | 422 kts | 349° |
| 2026-05-07 01:27 | 43.80732 | -73.41946 | 10994 ft | 420 kts | 349° |
| 2026-05-07 01:27 | 43.83639 | -73.42305 | 11012 ft | 420 kts | 349° |
| 2026-05-07 01:27 | 43.86550 | -73.42654 | 11011 ft | 420 kts | 350° |
| 2026-05-07 01:28 | 43.89434 | -73.42986 | 11011 ft | 420 kts | 350° |
| 2026-05-07 01:28 | 43.92345 | -73.43313 | 11013 ft | 420 kts | 350° |
| 2026-05-07 01:28 | 43.95260 | -73.43637 | 11010 ft | 420 kts | 350° |
| 2026-05-07 01:28 | 43.98178 | -73.43962 | 11023 ft | 420 kts | 350° |
| 2026-05-07 01:29 | 44.01089 | -73.44291 | 11010 ft | 420 kts | 350° |
| 2026-05-07 01:29 | 44.04001 | -73.44623 | 11008 ft | 419 kts | 350° |
| 2026-05-07 01:29 | 44.06911 | -73.44959 | 11008 ft | 420 kts | 350° |
| 2026-05-07 01:29 | 44.09823 | -73.45295 | 11004 ft | 420 kts | 350° |
| 2026-05-07 01:30 | 44.12734 | -73.45628 | 11012 ft | 420 kts | 350° |
| 2026-05-07 01:30 | 44.15646 | -73.45958 | 11017 ft | 420 kts | 350° |
| 2026-05-07 01:30 | 44.17616 | -73.46183 | 11013 ft | 420 kts | 350° |
| 2026-05-07 01:30 | 44.20530 | -73.46520 | 11005 ft | 420 kts | 350° |
| 2026-05-07 01:31 | 44.23441 | -73.46862 | 11009 ft | 420 kts | 350° |
| 2026-05-07 01:31 | 44.26318 | -73.47200 | 11007 ft | 420 kts | 350° |
| 2026-05-07 01:31 | 44.29230 | -73.47536 | 11005 ft | 420 kts | 350° |
| 2026-05-07 01:31 | 44.32143 | -73.47871 | 11008 ft | 420 kts | 350° |
| 2026-05-07 01:32 | 44.35057 | -73.48205 | 11010 ft | 420 kts | 350° |
| 2026-05-07 01:32 | 44.37981 | -73.48538 | 11032 ft | 422 kts | 350° |
| 2026-05-07 01:32 | 44.40896 | -73.48879 | 11084 ft | 416 kts | 350° |
| 2026-05-07 01:32 | 44.43800 | -73.49223 | 11095 ft | 419 kts | 350° |
| 2026-05-07 01:33 | 44.46703 | -73.49561 | 11006 ft | 418 kts | 350° |
| 2026-05-07 01:33 | 44.49600 | -73.49893 | 11020 ft | 418 kts | 350° |
| 2026-05-07 01:33 | 44.52506 | -73.50225 | 11022 ft | 419 kts | 350° |
| 2026-05-07 01:33 | 44.55412 | -73.50560 | 11025 ft | 419 kts | 350° |
| 2026-05-07 01:34 | 44.58316 | -73.50899 | 11036 ft | 419 kts | 350° |
| 2026-05-07 01:34 | 44.61225 | -73.51241 | 11024 ft | 418 kts | 351° |
| 2026-05-07 01:34 | 44.64137 | -73.51583 | 11026 ft | 418 kts | 350° |
| 2026-05-07 01:34 | 44.67004 | -73.51917 | 11025 ft | 418 kts | 351° |
| 2026-05-07 01:35 | 44.69904 | -73.52254 | 11044 ft | 418 kts | 351° |
| 2026-05-07 01:35 | 44.72788 | -73.52586 | 11128 ft | 416 kts | 351° |
| 2026-05-07 01:35 | 44.75663 | -73.52925 | 11016 ft | 414 kts | 351° |
| 2026-05-07 01:35 | 44.78542 | -73.53270 | 11025 ft | 414 kts | 351° |
| 2026-05-07 01:36 | 44.81408 | -73.53617 | 11017 ft | 414 kts | 351° |
| 2026-05-07 01:36 | 44.84280 | -73.53966 | 11014 ft | 414 kts | 351° |
| 2026-05-07 01:36 | 44.87149 | -73.54307 | 11011 ft | 414 kts | 351° |
| 2026-05-07 01:36 | 44.90021 | -73.54629 | 11008 ft | 415 kts | 351° |
| 2026-05-07 01:37 | 44.92903 | -73.54941 | 11003 ft | 415 kts | 351° |
| 2026-05-07 01:37 | 44.95778 | -73.55251 | 11002 ft | 414 kts | 351° |
| 2026-05-07 01:37 | 44.98650 | -73.55560 | 10996 ft | 413 kts | 351° |
| 2026-05-07 01:37 | 45.01485 | -73.55863 | 10273 ft | 405 kts | 351° |
| 2026-05-07 01:38 | 45.04279 | -73.56166 | 9316 ft | 400 kts | 352° |
| 2026-05-07 01:38 | 45.06985 | -73.56460 | 9049 ft | 377 kts | 352° |
| 2026-05-07 01:38 | 45.09517 | -73.56730 | 8907 ft | 353 kts | 352° |
| 2026-05-07 01:38 | 45.11915 | -73.56988 | 8494 ft | 339 kts | 352° |
| 2026-05-07 01:39 | 45.14245 | -73.57249 | 8060 ft | 334 kts | 352° |
| 2026-05-07 01:39 | 45.16556 | -73.57512 | 7985 ft | 333 kts | 352° |
| 2026-05-07 01:39 | 45.18865 | -73.57775 | 8000 ft | 333 kts | 352° |
| 2026-05-07 01:39 | 45.21175 | -73.58039 | 7999 ft | 333 kts | 352° |
| 2026-05-07 01:40 | 45.23485 | -73.58303 | 7998 ft | 333 kts | 352° |
| 2026-05-07 01:40 | 45.25775 | -73.58559 | 7533 ft | 327 kts | 352° |
| 2026-05-07 01:40 | 45.28007 | -73.58802 | 7264 ft | 312 kts | 353° |
| 2026-05-07 01:40 | 45.30119 | -73.59031 | 7139 ft | 294 kts | 353° |
| 2026-05-07 01:41 | 45.32108 | -73.59244 | 7004 ft | 279 kts | 353° |
| 2026-05-07 01:41 | 45.34010 | -73.59449 | 6721 ft | 271 kts | 353° |
| 2026-05-07 01:41 | 45.35875 | -73.59656 | 6321 ft | 267 kts | 353° |
| 2026-05-07 01:41 | 45.37720 | -73.59804 | 5879 ft | 265 kts | 359° |
| 2026-05-07 01:42 | 45.39540 | -73.59364 | 5434 ft | 266 kts | 16° |
| 2026-05-07 01:42 | 45.41208 | -73.58223 | 4985 ft | 267 kts | 32° |
| 2026-05-07 01:42 | 45.42674 | -73.56777 | 4838 ft | 249 kts | 32° |
| 2026-05-07 01:42 | 45.44059 | -73.55429 | 4452 ft | 236 kts | 31° |
| 2026-05-07 01:43 | 45.45403 | -73.54139 | 4048 ft | 230 kts | 30° |
| 2026-05-07 01:43 | 45.46744 | -73.52858 | 4008 ft | 234 kts | 30° |
| 2026-05-07 01:43 | 45.48102 | -73.51560 | 4007 ft | 235 kts | 30° |
| 2026-05-07 01:43 | 45.49460 | -73.50259 | 4006 ft | 235 kts | 30° |
| 2026-05-07 01:44 | 45.50817 | -73.48960 | 4007 ft | 235 kts | 30° |
| 2026-05-07 01:44 | 45.52171 | -73.47661 | 3955 ft | 234 kts | 30° |
| 2026-05-07 01:44 | 45.53611 | -73.46708 | 3593 ft | 225 kts | 4° |
| 2026-05-07 01:44 | 45.55100 | -73.46960 | 3153 ft | 212 kts | 330° |
| 2026-05-07 01:45 | 45.56178 | -73.48293 | 3009 ft | 209 kts | 308° |
| 2026-05-07 01:45 | 45.57116 | -73.49873 | 2994 ft | 202 kts | 307° |
| 2026-05-07 01:45 | 45.57959 | -73.51322 | 2997 ft | 182 kts | 307° |
| 2026-05-07 01:45 | 45.58751 | -73.52676 | 3001 ft | 175 kts | 307° |
| 2026-05-07 01:46 | 45.59525 | -73.53997 | 3003 ft | 172 kts | 307° |
| 2026-05-07 01:46 | 45.60228 | -73.55364 | 3009 ft | 170 kts | 292° |
| 2026-05-07 01:46 | 45.60390 | -73.57006 | 3034 ft | 170 kts | 262° |
| 2026-05-07 01:46 | 45.59832 | -73.58490 | 3009 ft | 177 kts | 226° |
| 2026-05-07 01:47 | 45.58884 | -73.59629 | 2939 ft | 177 kts | 228° |
| 2026-05-07 01:47 | 45.57997 | -73.60846 | 2758 ft | 175 kts | 228° |
| 2026-05-07 01:47 | 45.57150 | -73.61980 | 2550 ft | 161 kts | 227° |
| 2026-05-07 01:47 | 45.56345 | -73.63049 | 2348 ft | 156 kts | 227° |
| 2026-05-07 01:48 | 45.55556 | -73.64091 | 2138 ft | 154 kts | 227° |
| 2026-05-07 01:48 | 45.54778 | -73.65116 | 1925 ft | 151 kts | 226° |
| 2026-05-07 01:48 | 45.54010 | -73.66127 | 1720 ft | 149 kts | 226° |
| 2026-05-07 01:48 | 45.53253 | -73.67123 | 1510 ft | 145 kts | 225° |
| 2026-05-07 01:49 | 45.52545 | -73.68052 | 1312 ft | 134 kts | 226° |
| 2026-05-07 01:49 | 45.51877 | -73.68930 | 1128 ft | 131 kts | 225° |
| 2026-05-07 01:49 | 45.51194 | -73.69828 | 944 ft | 132 kts | 224° |
| 2026-05-07 01:49 | 45.50528 | -73.70702 | 756 ft | 133 kts | 224° |
| 2026-05-07 01:50 | 45.49849 | -73.71592 | 579 ft | 131 kts | 223° |
| 2026-05-07 01:50 | 45.49177 | -73.72466 | 413 ft | 130 kts | 224° |
| 2026-05-07 01:50 | 45.48510 | -73.73352 | 221 ft | 131 kts | 225° |
| 2026-05-07 01:50 | 45.47880 | -73.74201 | 114 ft | 103 kts | 222° |
| 2026-05-07 01:51 | 45.47574 | -73.74594 | 109 ft | 16 kts | 221° |
| 2026-05-07 01:51 | 45.47532 | -73.74647 | 112 ft | 15 kts | 221° |
| 2026-05-07 01:51 | 45.47419 | -73.74788 | 113 ft | 28 kts | 221° |
| 2026-05-07 01:51 | 45.47251 | -73.74937 | 114 ft | 30 kts | 200° |
| 2026-05-07 01:52 | 45.47037 | -73.75009 | 111 ft | 33 kts | 191° |
| 2026-05-07 01:52 | 45.46960 | -73.75033 | 110 ft | 0 kts | 193° |
| 2026-05-07 01:52 | 45.46953 | -73.75035 | 110 ft | 5 kts | 193° |
| 2026-05-07 01:52 | 45.46869 | -73.75040 | 109 ft | 19 kts | 178° |
| 2026-05-07 01:53 | 45.46700 | -73.75030 | 108 ft | 29 kts | 178° |
| 2026-05-07 01:53 | 45.46477 | -73.75018 | 106 ft | 35 kts | 177° |
| 2026-05-07 01:53 | 45.46319 | -73.75031 | 106 ft | 17 kts | 223° |
| 2026-05-07 01:53 | 45.46311 | -73.75179 | 105 ft | 18 kts | 263° |
| 2026-05-07 01:54 | 45.46307 | -73.75395 | 105 ft | 25 kts | 272° |
| 2026-05-07 01:54 | 45.46325 | -73.75461 | 104 ft | 1 kts | 303° |
| 2026-05-07 01:54 | 45.46330 | -73.75464 | 104 ft | 1 kts | 332° |
| 2026-05-07 01:54 | 45.46387 | -73.75463 | 103 ft | 9 kts | 0° |
| 2026-05-07 01:55 | 45.46422 | -73.75465 | 103 ft | 0 kts | 357° |